Time;durP1;ratioP1;P1;durP2;ratioP2;P2;SDS_P1;SDS_P2;PMS_P1;PMS_P2;Temp;Humidity;BMP_temperature;BMP_pressure;BME280_temperature;BME280_humidity;BME280_pressure;Samples;Min_cycle;Max_cycle;Signal;HPM_P1;HPM_P2
2023/07/26 00:02:09;;;;;;;;;2.67;2.67;;;;;16.84;56.14;101210.91;5002287;28;67333;-45
2023/07/26 00:04:34;;;;;;;;;5.00;5.00;;;;;16.82;56.31;101213.72;5001573;28;69435;-49
2023/07/26 00:07:00;;;;;;;;;4.67;4.67;;;;;16.81;56.11;101212.00;5002329;28;67245;-48
2023/07/26 00:09:25;;;;;;;;;5.67;4.33;;;;;16.80;56.19;101210.28;5001759;28;74907;-49
2023/07/26 00:11:50;;;;;;;;;4.00;4.00;;;;;16.78;55.87;101209.53;5000756;28;70868;-44
2023/07/26 00:14:16;;;;;;;;;4.33;3.33;;;;;16.78;55.89;101219.41;5001733;28;67834;-48
2023/07/26 00:16:41;;;;;;;;;5.33;5.33;;;;;16.76;56.26;101222.19;5002279;28;62159;-46
2023/07/26 00:19:06;;;;;;;;;4.00;4.00;;;;;16.75;56.09;101223.19;5002396;28;46223;-45
2023/07/26 00:21:32;;;;;;;;;5.00;4.00;;;;;16.75;55.60;101222.31;5002964;28;45403;-48
2023/07/26 00:23:58;;;;;;;;;3.00;3.00;;;;;16.72;55.92;101226.06;5002882;28;45489;-45
2023/07/26 00:26:24;;;;;;;;;4.00;3.00;;;;;16.72;56.36;101227.91;5002682;28;45438;-44
2023/07/26 00:28:50;;;;;;;;;4.67;4.67;;;;;16.70;56.52;101228.88;5002231;28;45439;-47
2023/07/26 00:31:15;;;;;;;;;3.67;3.67;;;;;16.70;56.44;101225.34;5001423;28;72307;-45
2023/07/26 00:33:40;;;;;;;;;3.00;3.00;;;;;16.69;56.66;101227.13;5001594;28;56573;-45
2023/07/26 00:36:08;;;;;;;;;4.67;4.67;;;;;16.68;56.63;101217.34;5001907;28;66453;-45
2023/07/26 00:38:33;;;;;;;;;5.00;5.00;;;;;16.66;56.72;101221.13;5002419;28;45435;-44
2023/07/26 00:40:58;;;;;;;;;4.00;4.00;;;;;16.65;56.32;101220.28;5002371;28;45648;-45
2023/07/26 00:43:23;;;;;;;;;3.00;3.00;;;;;16.63;56.56;101222.19;5002408;28;45443;-44
2023/07/26 00:45:49;;;;;;;;;4.33;3.33;;;;;16.63;56.49;101221.34;5001637;28;67030;-48
2023/07/26 00:48:15;;;;;;;;;4.00;4.00;;;;;16.62;56.58;101217.81;5000983;28;71498;-47
2023/07/26 00:50:41;;;;;;;;;5.67;4.67;;;;;16.62;56.64;101223.19;5001214;28;69959;-44
2023/07/26 00:53:07;;;;;;;;;5.00;3.33;;;;;16.62;56.79;101223.19;4997764;28;45436;-47
2023/07/26 00:55:34;;;;;;;;;5.00;5.00;;;;;16.63;56.45;101219.50;4992619;28;45746;-47
2023/07/26 00:58:00;;;;;;;;;4.00;4.00;;;;;16.61;56.60;101232.19;5000685;28;45440;-44
2023/07/26 01:00:26;;;;;;;;;3.00;3.00;;;;;16.61;56.76;101217.88;5000802;28;45403;-45
2023/07/26 01:02:51;;;;;;;;;5.00;4.00;;;;;16.59;56.93;101220.69;5001983;28;45511;-43
2023/07/26 01:05:17;;;;;;;;;4.33;4.33;;;;;16.59;57.09;101222.53;5002002;28;45440;-47
2023/07/26 01:08:03;;;;;;;;;2.67;2.67;;;;;16.58;57.40;101223.47;5000842;28;46759;-44
2023/07/26 01:10:42;;;;;;;;;4.00;4.00;;;;;16.56;57.33;101217.34;5000929;28;45438;-47
2023/07/26 01:13:21;;;;;;;;;6.00;4.67;;;;;16.53;57.14;101224.66;4997662;28;45753;-45
2023/07/26 01:15:48;;;;;;;;;4.00;4.00;;;;;16.51;57.38;101212.31;4996773;28;45361;-45
2023/07/26 01:18:15;;;;;;;;;2.33;2.00;;;;;16.49;57.51;101220.47;5001094;28;71527;-44
2023/07/26 01:20:40;;;;;;;;;5.00;4.00;;;;;16.46;57.47;101209.91;5002593;28;45294;-45
2023/07/26 01:23:06;;;;;;;;;5.00;4.33;;;;;16.45;57.80;101215.41;5001494;28;68102;-46
2023/07/26 01:25:32;;;;;;;;;4.00;3.00;;;;;16.44;57.97;101217.25;5001974;28;45301;-45
2023/07/26 01:27:57;;;;;;;;;3.00;3.00;;;;;16.43;57.79;101209.28;5001429;28;46488;-46
2023/07/26 01:30:23;;;;;;;;;3.67;3.67;;;;;16.41;57.64;101217.44;5000929;28;68623;-45
2023/07/26 01:32:50;;;;;;;;;3.67;2.67;;;;;16.40;58.55;101217.53;5000056;28;45370;-47
2023/07/26 01:35:17;;;;;;;;;3.00;3.00;;;;;16.38;58.13;101213.13;4999773;28;45505;-45
2023/07/26 01:37:42;;;;;;;;;4.67;4.67;;;;;16.35;58.45;101213.34;5000384;28;46331;-44
2023/07/26 01:40:08;;;;;;;;;5.00;3.67;;;;;16.34;58.46;101211.63;4999668;28;45400;-44
2023/07/26 01:42:34;;;;;;;;;4.00;4.00;;;;;16.34;58.45;101205.41;4996898;28;45646;-43
2023/07/26 01:45:03;;;;;;;;;4.00;4.00;;;;;16.33;58.72;101211.72;4997734;28;54503;-43
2023/07/26 01:47:29;;;;;;;;;4.67;3.00;;;;;16.31;59.15;101194.84;5001006;28;47482;-45
2023/07/26 01:49:54;;;;;;;;;4.00;4.00;;;;;16.29;58.80;101203.03;5001262;28;45669;-48
2023/07/26 01:52:19;;;;;;;;;4.00;4.00;;;;;16.28;58.98;101203.13;5000620;28;66888;-44
2023/07/26 01:54:45;;;;;;;;;5.67;4.00;;;;;16.27;59.15;101204.09;5000611;28;66572;-45
2023/07/26 01:57:10;;;;;;;;;3.67;3.67;;;;;16.25;59.34;101206.03;5000399;28;70170;-45
2023/07/26 01:59:35;;;;;;;;;4.00;4.00;;;;;16.21;59.67;101200.84;4999611;28;45424;-46
2023/07/26 02:02:01;;;;;;;;;4.33;4.33;;;;;16.19;59.56;101210.84;5001320;28;45416;-45
2023/07/26 02:04:26;;;;;;;;;4.00;4.00;;;;;16.17;59.97;101206.56;5000522;28;52866;-46
2023/07/26 02:06:52;;;;;;;;;6.00;5.00;;;;;16.15;59.95;101195.03;4999953;28;74580;-43
2023/07/26 02:09:18;;;;;;;;;6.00;4.00;;;;;16.13;59.77;101202.34;5001065;28;45396;-44
2023/07/26 02:11:43;;;;;;;;;4.00;4.00;;;;;16.11;60.04;101198.91;5000498;28;61523;-44
2023/07/26 02:14:08;;;;;;;;;3.33;3.33;;;;;16.10;59.97;101203.41;5000240;28;65700;-44
2023/07/26 02:16:33;;;;;;;;;6.00;4.00;;;;;16.08;59.90;101196.44;5000031;28;75833;-44
2023/07/26 02:18:59;;;;;;;;;4.00;4.00;;;;;16.08;60.23;101196.44;4999654;28;69267;-45
2023/07/26 02:21:24;;;;;;;;;4.67;4.00;;;;;16.05;60.27;101200.19;4999873;28;45425;-44
2023/07/26 02:23:49;;;;;;;;;3.00;3.00;;;;;16.02;60.14;101201.25;5000096;28;68135;-48
2023/07/26 02:26:15;;;;;;;;;6.67;5.00;;;;;16.01;60.19;101199.53;5000107;28;61471;-45
2023/07/26 02:28:40;;;;;;;;;4.00;4.00;;;;;16.01;60.66;101202.22;4999654;28;70148;-45
2023/07/26 02:31:05;;;;;;;;;4.00;4.00;;;;;15.99;60.49;101201.44;5000903;28;45582;-46
2023/07/26 02:33:31;;;;;;;;;4.67;4.00;;;;;15.98;60.57;101213.16;4999744;28;68875;-49
2023/07/26 02:35:59;;;;;;;;;4.00;4.00;;;;;15.96;60.10;101206.16;5000798;28;47138;-47
2023/07/26 02:38:24;;;;;;;;;3.67;3.67;;;;;15.95;60.61;101209.81;5000616;28;45455;-46
2023/07/26 02:40:50;;;;;;;;;7.00;5.00;;;;;15.93;60.62;101201.88;5000769;28;45579;-44
2023/07/26 02:43:15;;;;;;;;;4.00;3.00;;;;;15.91;60.12;101202.94;4999710;28;63472;-48
2023/07/26 02:45:40;;;;;;;;;3.00;3.00;;;;;15.88;60.45;101204.00;5000638;28;46111;-47
2023/07/26 02:48:06;;;;;;;;;3.00;3.00;;;;;15.87;60.42;101204.94;4998342;28;66691;-45
2023/07/26 02:50:32;;;;;;;;;3.00;3.00;;;;;15.85;60.48;101201.50;5000503;28;62338;-44
2023/07/26 02:52:57;;;;;;;;;4.00;4.00;;;;;15.84;60.60;101199.78;5000992;28;45457;-48
2023/07/26 02:55:23;;;;;;;;;3.33;3.33;;;;;15.82;60.93;101205.22;4999907;28;59896;-47
2023/07/26 02:57:48;;;;;;;;;3.33;3.33;;;;;15.80;61.13;101203.59;4999893;28;52987;-48
2023/07/26 03:00:14;;;;;;;;;4.00;4.00;;;;;15.77;60.92;101207.31;4999648;28;65885;-48
2023/07/26 03:02:39;;;;;;;;;6.00;3.33;;;;;15.76;61.20;101204.75;4996019;28;45486;-46
2023/07/26 03:05:05;;;;;;;;;4.00;4.00;;;;;15.73;61.41;101197.75;4999175;28;71908;-47
2023/07/26 03:07:30;;;;;;;;;5.00;5.00;;;;;15.71;61.29;101205.06;5000035;28;45325;-49
2023/07/26 03:09:56;;;;;;;;;5.00;3.33;;;;;15.68;61.58;101199.88;4999459;28;65618;-45
2023/07/26 03:12:21;;;;;;;;;3.00;3.00;;;;;15.67;61.27;101201.72;5000418;28;45502;-44
2023/07/26 03:14:46;;;;;;;;;4.67;4.67;;;;;15.67;61.34;101203.53;4999347;28;66362;-47
2023/07/26 03:17:11;;;;;;;;;5.33;5.33;;;;;15.65;61.46;101208.13;4999535;28;56387;-44
2023/07/26 03:19:37;;;;;;;;;3.00;3.00;;;;;15.62;61.79;101203.84;4999151;28;66930;-46
2023/07/26 03:22:02;;;;;;;;;4.67;4.00;;;;;15.62;61.97;101211.00;4999246;28;65645;-45
2023/07/26 03:24:27;;;;;;;;;4.00;4.00;;;;;15.59;62.21;101217.44;4999798;28;46357;-46
2023/07/26 03:26:53;;;;;;;;;6.33;5.00;;;;;15.58;61.76;101214.84;4998924;28;70997;-44
2023/07/26 03:29:18;;;;;;;;;5.00;5.00;;;;;15.56;61.91;101217.63;4999512;28;45441;-48
2023/07/26 03:31:43;;;;;;;;;5.00;5.00;;;;;15.54;62.21;101217.72;4998888;28;67566;-45
2023/07/26 03:34:09;;;;;;;;;7.33;3.00;;;;;15.54;62.26;101216.88;4998438;28;45452;-47
2023/07/26 03:36:34;;;;;;;;;5.00;4.00;;;;;15.54;62.61;101219.56;4998722;28;71632;-47
2023/07/26 03:38:59;;;;;;;;;4.00;4.00;;;;;15.54;62.68;101219.56;4998973;28;67651;-46
2023/07/26 03:41:25;;;;;;;;;6.33;5.67;;;;;15.54;62.22;101223.09;4999675;28;45431;-45
2023/07/26 03:43:50;;;;;;;;;6.00;6.00;;;;;15.53;62.24;101226.72;4999470;28;45395;-48
2023/07/26 03:46:16;;;;;;;;;7.33;5.67;;;;;15.52;62.64;101218.78;4999793;28;45437;-48
2023/07/26 03:48:41;;;;;;;;;7.33;7.33;;;;;15.51;62.71;101222.44;4999625;28;45431;-45
2023/07/26 03:51:06;;;;;;;;;8.00;7.00;;;;;15.50;62.57;101223.38;4999756;28;45586;-49
2023/07/26 03:53:32;;;;;;;;;5.00;5.00;;;;;15.50;63.18;101220.69;4999550;28;46328;-49
2023/07/26 03:55:57;;;;;;;;;5.33;4.00;;;;;15.50;63.28;101220.69;4999633;28;45274;-48
2023/07/26 03:58:22;;;;;;;;;7.00;6.00;;;;;15.50;63.16;101218.91;4999706;28;45480;-49
2023/07/26 04:00:48;;;;;;;;;4.33;4.33;;;;;15.49;63.56;101217.16;4999480;28;45341;-44
2023/07/26 04:03:13;;;;;;;;;5.00;5.00;;;;;15.49;63.48;101217.16;5010398;28;69884;-48
2023/07/26 04:05:38;;;;;;;;;5.00;5.00;;;;;15.49;63.40;101206.44;4992590;28;45449;-50
2023/07/26 04:08:04;;;;;;;;;5.00;5.00;;;;;15.49;63.00;101219.00;4998589;28;67346;-49
2023/07/26 04:10:29;;;;;;;;;6.00;4.33;;;;;15.48;63.22;101219.94;4999477;28;45211;-47
2023/07/26 04:12:55;;;;;;;;;5.67;4.33;;;;;15.47;63.27;101212.88;4998554;28;69950;-48
2023/07/26 04:15:20;;;;;;;;;5.00;5.00;;;;;15.47;63.82;101219.06;4999623;28;45261;-48
2023/07/26 04:17:45;;;;;;;;;4.00;4.00;;;;;15.47;63.84;101220.91;4998475;28;56100;-48
2023/07/26 04:20:11;;;;;;;;;5.00;4.67;;;;;15.46;63.58;101203.09;4998885;28;69771;-44
2023/07/26 04:22:36;;;;;;;;;7.00;6.00;;;;;15.46;63.60;101213.81;4999178;28;46070;-45
2023/07/26 04:25:01;;;;;;;;;6.00;5.00;;;;;15.45;63.82;101202.25;4998712;28;63448;-46
2023/07/26 04:27:27;;;;;;;;;8.33;7.00;;;;;15.46;63.78;101213.81;4999332;28;45490;-47
2023/07/26 04:29:52;;;;;;;;;9.00;7.67;;;;;15.45;63.69;101207.59;4997420;28;58644;-44
2023/07/26 04:32:17;;;;;;;;;6.00;6.00;;;;;15.46;63.62;101211.13;4999162;28;45349;-46
2023/07/26 04:34:43;;;;;;;;;9.00;7.00;;;;;15.45;64.09;101212.97;4998079;28;69595;-45
2023/07/26 04:37:08;;;;;;;;;6.00;6.00;;;;;15.48;64.48;101211.91;4998941;28;45844;-46
2023/07/26 04:39:33;;;;;;;;;5.67;5.33;;;;;15.46;64.40;101212.00;4998198;28;67619;-44
2023/07/26 04:41:59;;;;;;;;;6.33;6.33;;;;;15.47;64.06;101203.00;4998463;28;70428;-45
2023/07/26 04:44:24;;;;;;;;;8.00;8.00;;;;;15.49;64.14;101216.31;5001471;28;69083;-45
2023/07/26 04:46:49;;;;;;;;;7.00;7.00;;;;;15.51;64.63;101214.38;5001732;28;61972;-45
2023/07/26 04:49:15;;;;;;;;;9.33;8.00;;;;;15.55;64.85;101213.22;5002144;28;45750;-45
2023/07/26 04:51:40;;;;;;;;;11.67;6.67;;;;;15.57;64.89;101219.34;4999731;28;76401;-45
2023/07/26 04:54:05;;;;;;;;;7.33;7.00;;;;;15.60;65.05;101216.47;5001329;28;69998;-46
2023/07/26 04:56:31;;;;;;;;;6.00;6.00;;;;;15.64;64.47;101219.81;5001666;28;58052;-49
2023/07/26 04:58:56;;;;;;;;;7.00;7.00;;;;;15.69;64.33;101220.38;5002251;28;45412;-47
2023/07/26 05:01:23;;;;;;;;;5.00;5.00;;;;;15.71;64.33;101223.84;5001627;28;67526;-46
2023/07/26 05:03:49;;;;;;;;;7.00;6.00;;;;;15.76;65.02;101223.53;5001797;28;45414;-45
2023/07/26 05:06:14;;;;;;;;;6.00;6.00;;;;;15.79;65.16;101226.88;4997510;28;45220;-44
2023/07/26 05:08:39;;;;;;;;;9.00;7.67;;;;;15.81;65.06;101219.63;4993175;28;50272;-44
2023/07/26 05:11:05;;;;;;;;;7.67;6.33;;;;;15.81;65.19;101222.31;5000863;28;72544;-45
2023/07/26 05:13:31;;;;;;;;;6.00;6.00;;;;;15.80;64.86;101220.56;5001956;28;45498;-46
2023/07/26 05:15:56;;;;;;;;;6.67;6.00;;;;;15.84;65.46;101230.16;4997700;28;45552;-45
2023/07/26 05:18:21;;;;;;;;;9.33;6.67;;;;;15.90;65.45;101234.25;4992251;28;49465;-47
2023/07/26 05:20:50;;;;;;;;;7.00;6.00;;;;;15.99;65.34;101230.09;5001507;28;53917;-46
2023/07/26 05:23:16;;;;;;;;;8.67;6.33;;;;;16.05;65.25;101237.75;5001965;28;45582;-46
2023/07/26 05:25:42;;;;;;;;;7.00;7.00;;;;;16.13;65.04;101235.41;5002078;28;45261;-46
2023/07/26 05:28:07;;;;;;;;;6.00;6.00;;;;;16.19;65.32;101243.06;4999996;28;53334;-46
2023/07/26 05:30:39;;;;;;;;;6.00;5.00;;;;;16.28;65.51;101244.28;5000634;28;74355;-47
2023/07/26 05:33:05;;;;;;;;;10.33;6.33;;;;;16.36;65.18;101239.25;5001566;28;45455;-45
2023/07/26 05:35:31;;;;;;;;;6.00;6.00;;;;;16.49;64.55;101241.06;5001617;28;45352;-47
2023/07/26 05:37:56;;;;;;;;;6.67;4.67;;;;;16.92;64.97;101243.53;5001768;28;45383;-45
2023/07/26 05:40:22;;;;;;;;;7.67;4.67;;;;;17.66;64.25;101242.78;5001445;28;46072;-49
2023/07/26 05:42:47;;;;;;;;;6.33;6.33;;;;;17.81;62.93;101243.50;5000720;28;69608;-45
2023/07/26 05:45:12;;;;;;;;;6.67;6.67;;;;;17.73;62.09;101237.81;5000289;28;66215;-47
2023/07/26 05:47:38;;;;;;;;;6.00;6.00;;;;;17.56;62.52;101247.97;5000749;28;65153;-45
2023/07/26 05:50:05;;;;;;;;;7.67;7.00;;;;;17.44;62.80;101247.03;5001361;28;46228;-48
2023/07/26 05:52:31;;;;;;;;;7.67;5.33;;;;;17.35;63.45;101256.63;5001003;28;45368;-46
2023/07/26 05:54:56;;;;;;;;;5.33;5.00;;;;;17.33;63.39;101263.91;5000688;28;61969;-46
2023/07/26 05:57:21;;;;;;;;;5.00;5.00;;;;;17.31;63.44;101271.25;5000607;28;63101;-47
2023/07/26 05:59:47;;;;;;;;;7.00;7.00;;;;;17.31;63.48;101257.81;5000392;28;67539;-45
2023/07/26 06:02:12;;;;;;;;;6.33;6.00;;;;;17.28;63.63;101266.06;5000737;28;45517;-46
2023/07/26 06:04:37;;;;;;;;;6.00;6.00;;;;;17.29;64.35;101277.72;5000229;28;68758;-45
2023/07/26 06:07:03;;;;;;;;;7.00;7.00;;;;;17.31;64.13;101282.00;5000119;28;69000;-48
2023/07/26 06:09:28;;;;;;;;;8.67;6.00;;;;;17.26;64.16;101288.66;5000645;28;56378;-46
2023/07/26 06:11:53;;;;;;;;;8.67;7.00;;;;;17.28;64.40;101276.84;4983321;28;47841;-46
2023/07/26 06:14:19;;;;;;;;;8.00;6.00;;;;;17.42;64.23;101283.94;5000272;28;60376;-49
2023/07/26 06:16:44;;;;;;;;;6.33;6.33;;;;;17.64;64.23;101290.47;5000430;28;56818;-47
2023/07/26 06:19:09;;;;;;;;;8.67;6.33;;;;;17.84;63.27;101292.53;4999655;28;70888;-47
2023/07/26 06:21:35;;;;;;;;;14.67;8.00;;;;;18.05;62.88;101291.97;5000762;28;48224;-45
2023/07/26 06:24:00;;;;;;;;;8.00;7.00;;;;;18.13;63.33;101297.66;4998884;28;59892;-45
2023/07/26 06:26:25;;;;;;;;;8.00;6.00;;;;;18.13;63.25;101300.34;4999975;28;68687;-46
2023/07/26 06:28:51;;;;;;;;;8.00;6.00;;;;;18.15;63.22;101294.84;4999884;28;72115;-46
2023/07/26 06:31:16;;;;;;;;;6.33;6.33;;;;;18.25;62.90;101297.72;4999745;28;71729;-46
2023/07/26 06:33:41;;;;;;;;;8.67;7.33;;;;;18.35;62.62;101305.00;5000264;28;45428;-48
2023/07/26 06:36:07;;;;;;;;;9.33;7.67;;;;;18.48;62.91;101306.75;4998617;28;67223;-45
2023/07/26 06:38:32;;;;;;;;;8.33;8.00;;;;;18.44;62.55;101299.88;5000640;28;45987;-45
2023/07/26 06:40:58;;;;;;;;;8.00;7.33;;;;;18.44;62.72;101305.28;5000582;28;45530;-45
2023/07/26 06:43:23;;;;;;;;;8.00;6.33;;;;;18.82;62.56;101302.31;5000307;28;45420;-44
2023/07/26 06:45:50;;;;;;;;;11.00;7.00;;;;;19.59;61.73;101308.09;4999395;28;69896;-46
2023/07/26 06:48:16;;;;;;;;;6.00;6.00;;;;;19.91;60.46;101292.03;4999935;28;46061;-49
2023/07/26 06:50:41;;;;;;;;;7.33;7.33;;;;;20.12;59.54;101307.44;4995776;28;45439;-47
2023/07/26 06:53:07;;;;;;;;;8.00;7.33;;;;;21.13;58.92;101305.28;4997873;28;51771;-44
2023/07/26 06:55:33;;;;;;;;;9.33;9.33;;;;;22.18;57.70;101304.13;5000322;28;45615;-45
2023/07/26 06:57:59;;;;;;;;;8.00;8.00;;;;;24.15;53.91;101294.50;5000251;28;45507;-48
2023/07/26 07:00:24;;;;;;;;;10.00;6.67;;;;;25.78;48.93;101291.44;4999097;28;68843;-45
2023/07/26 07:02:55;;;;;;;;;8.33;8.00;;;;;26.82;48.24;101295.53;5000093;28;45495;-44
2023/07/26 07:05:20;;;;;;;;;8.67;7.00;;;;;28.27;45.78;101290.94;4999172;28;45444;-45
2023/07/26 07:07:46;;;;;;;;;8.33;6.00;;;;;30.49;44.46;101290.28;4999913;28;53640;-46
2023/07/26 07:10:11;;;;;;;;;5.67;4.00;;;;;32.59;41.13;101281.00;4999323;28;71989;-47
2023/07/26 07:12:36;;;;;;;;;10.67;7.00;;;;;34.46;37.21;101290.56;4999606;28;57965;-49
2023/07/26 07:15:01;;;;;;;;;6.00;6.00;;;;;36.08;34.28;101288.59;4999112;28;45337;-49
2023/07/26 07:17:28;;;;;;;;;9.67;8.00;;;;;37.38;29.20;101285.16;4978393;28;66561;-45
2023/07/26 07:19:53;;;;;;;;;8.00;8.00;;;;;38.13;32.12;101290.78;4990487;28;58600;-50
2023/07/26 07:22:19;;;;;;;;;9.00;5.67;;;;;39.01;31.10;101297.84;5000251;28;45674;-50
2023/07/26 07:24:44;;;;;;;;;7.50;4.75;;;;;39.74;29.88;101299.63;5000041;28;45512;-47
2023/07/26 07:27:09;;;;;;;;;6.75;5.00;;;;;40.22;26.70;101306.28;4998773;28;70898;-48
2023/07/26 07:29:35;;;;;;;;;9.25;5.50;;;;;40.78;25.31;101305.09;4999864;28;45368;-48
2023/07/26 07:32:00;;;;;;;;;4.00;3.25;;;;;41.48;24.75;101304.97;4999824;28;45454;-46
2023/07/26 07:34:26;;;;;;;;;5.25;4.00;;;;;41.72;24.07;101294.16;4999659;28;45539;-47
2023/07/26 07:36:51;;;;;;;;;4.75;3.75;;;;;42.12;23.92;101283.34;4999626;28;46390;-48
2023/07/26 07:39:16;;;;;;;;;4.00;4.00;;;;;42.61;22.60;101293.16;4999745;28;45389;-48
2023/07/26 07:41:42;;;;;;;;;5.75;2.75;;;;;43.04;23.55;101299.25;4999810;28;45450;-47
2023/07/26 07:44:07;;;;;;;;;6.75;4.00;;;;;42.71;21.40;101289.53;4998644;28;67639;-45
2023/07/26 07:46:32;;;;;;;;;4.50;3.00;;;;;40.42;21.66;101288.06;4998400;28;74554;-47
2023/07/26 07:48:59;;;;;;;;;5.50;3.00;;;;;40.44;24.54;101289.47;4998660;28;69906;-47
2023/07/26 07:51:24;;;;;;;;;4.75;3.00;;;;;41.22;22.36;101293.66;5000619;28;45523;-50
2023/07/26 07:53:50;;;;;;;;;4.00;4.00;;;;;42.25;21.77;101290.38;4998592;28;50067;-45
2023/07/26 07:56:15;;;;;;;;;4.00;4.00;;;;;43.21;21.10;101284.94;4999150;28;58597;-46
2023/07/26 07:58:41;;;;;;;;;2.75;2.75;;;;;43.94;21.26;101283.47;4998909;28;61720;-47
2023/07/26 08:01:06;;;;;;;;;2.50;2.50;;;;;42.56;21.61;101290.38;4999625;28;45450;-48
2023/07/26 08:03:32;;;;;;;;;2.00;2.00;;;;;40.28;21.29;101288.50;4999246;28;45429;-45
2023/07/26 08:05:57;;;;;;;;;3.50;2.75;;;;;38.58;22.99;101297.41;4999145;28;46132;-45
2023/07/26 08:08:23;;;;;;;;;3.00;2.00;;;;;37.70;23.22;101289.38;4997640;28;64527;-46
2023/07/26 08:10:48;;;;;;;;;3.00;3.00;;;;;36.14;24.79;101295.16;4999508;28;45700;-46
2023/07/26 08:13:14;;;;;;;;;2.75;2.00;;;;;37.69;25.12;101298.78;4999646;28;45402;-44
2023/07/26 08:15:39;;;;;;;;;5.00;4.00;;;;;39.86;22.60;101297.56;4999834;28;45954;-45
2023/07/26 08:18:05;;;;;;;;;4.75;4.75;;;;;41.05;20.97;101293.03;5000862;28;52190;-50
2023/07/26 08:20:34;;;;;;;;;3.50;3.50;;;;;41.92;20.73;101300.94;5003120;28;45647;-46
2023/07/26 08:23:00;;;;;;;;;3.00;3.00;;;;;42.60;20.69;101291.50;5003589;28;45324;-46
2023/07/26 08:25:25;;;;;;;;;2.00;2.00;;;;;42.67;20.27;101297.63;5003028;28;46001;-47
2023/07/26 08:27:51;;;;;;;;;2.00;2.00;;;;;43.15;19.86;101297.28;5002035;28;60404;-46
2023/07/26 08:30:16;;;;;;;;;2.00;2.00;;;;;43.44;19.72;101291.00;5000255;28;45331;-46
2023/07/26 08:32:42;;;;;;;;;2.75;2.25;;;;;44.11;18.92;101296.25;5002342;28;45404;-48
2023/07/26 08:35:07;;;;;;;;;2.00;2.00;;;;;44.70;18.55;101302.75;5001150;28;74581;-48
2023/07/26 08:37:32;;;;;;;;;3.25;3.00;;;;;45.35;16.78;101295.06;5002576;28;45463;-49
2023/07/26 08:39:58;;;;;;;;;4.00;0.75;;;;;44.25;17.28;101307.59;5001671;28;65935;-50
2023/07/26 08:42:23;;;;;;;;;3.00;3.00;;;;;41.15;18.34;101299.47;5001329;28;70795;-47
2023/07/26 08:44:49;;;;;;;;;4.50;4.50;;;;;39.80;19.46;101304.16;5001415;28;70566;-45
2023/07/26 08:47:15;;;;;;;;;1.75;1.75;;;;;40.19;19.96;101296.50;5002418;28;45376;-45
2023/07/26 08:49:40;;;;;;;;;1.00;1.00;;;;;41.12;20.12;101300.03;5002369;28;45347;-45
2023/07/26 08:52:06;;;;;;;;;4.50;3.25;;;;;42.52;20.10;101292.88;4996791;28;69269;-49
2023/07/26 08:54:32;;;;;;;;;2.50;2.50;;;;;43.31;17.41;101292.44;4997489;28;46089;-49
2023/07/26 08:56:57;;;;;;;;;4.25;3.25;;;;;41.22;19.12;101293.66;5001652;28;65132;-47
2023/07/26 08:59:24;;;;;;;;;2.25;2.25;;;;;39.17;19.33;101301.66;5002236;28;45515;-46
2023/07/26 09:01:50;;;;;;;;;2.00;2.00;;;;;39.72;20.30;101290.72;5002009;28;45241;-47
2023/07/26 09:04:16;;;;;;;;;1.25;1.25;;;;;41.23;19.13;101286.97;5000141;28;63245;-45
2023/07/26 09:06:41;;;;;;;;;3.50;0.25;;;;;42.13;18.16;101279.47;5001156;28;66505;-45
2023/07/26 09:09:06;;;;;;;;;1.50;1.50;;;;;41.82;18.27;101276.63;5001879;28;45737;-47
2023/07/26 09:11:33;;;;;;;;;1.00;1.00;;;;;41.39;18.03;101278.66;5001049;28;67482;-46
2023/07/26 09:13:59;;;;;;;;;0.75;0.75;;;;;41.66;18.30;101268.19;5001848;28;47063;-47
2023/07/26 09:16:31;;;;;;;;;1.50;1.50;;;;;42.65;17.65;101283.91;5001591;28;45322;-46
2023/07/26 09:19:01;;;;;;;;;0.75;0.75;;;;;43.11;16.79;101285.00;5001643;28;45408;-45
2023/07/26 09:21:28;;;;;;;;;1.00;0.00;;;;;42.78;16.69;101276.94;5001965;28;45552;-48
2023/07/26 09:23:54;;;;;;;;;1.00;1.00;;;;;43.22;16.47;101274.59;5001663;28;46897;-48
2023/07/26 09:26:40;;;;;;;;;3.25;1.50;;;;;42.30;17.19;101282.84;5001680;28;45444;-48
2023/07/26 09:29:10;;;;;;;;;1.25;1.25;;;;;40.05;17.74;101286.03;4999705;28;45314;-48
2023/07/26 09:31:38;;;;;;;;;1.50;1.00;;;;;39.21;18.37;101288.94;5001775;28;45899;-50
2023/07/26 09:34:06;;;;;;;;;1.00;1.00;;;;;39.99;18.44;101282.38;5001195;28;46326;-45
2023/07/26 09:36:51;;;;;;;;;0.00;0.00;;;;;40.38;17.05;101286.91;5001604;28;45414;-46
2023/07/26 09:39:19;;;;;;;;;1.00;1.00;;;;;39.14;17.80;101286.31;5001715;28;45435;-47
2023/07/26 09:41:47;;;;;;;;;1.00;1.00;;;;;39.07;18.77;101287.63;5000186;28;45349;-47
2023/07/26 09:44:17;;;;;;;;;1.25;0.75;;;;;39.74;18.10;101285.72;4996485;28;47089;-48
2023/07/26 09:46:47;;;;;;;;;0.00;0.00;;;;;40.67;18.20;101291.06;4998584;28;45449;-45
2023/07/26 09:49:13;;;;;;;;;1.25;0.00;;;;;41.83;16.91;101292.25;5001663;28;45839;-45
2023/07/26 09:51:38;;;;;;;;;0.75;0.00;;;;;42.14;15.70;101284.75;5000284;28;66388;-49
2023/07/26 09:54:04;;;;;;;;;0.00;0.00;;;;;42.43;16.41;101291.78;4999643;28;46181;-45
2023/07/26 09:56:33;;;;;;;;;2.25;0.75;;;;;40.99;17.04;101289.34;4995757;28;65958;-50
2023/07/26 09:58:59;;;;;;;;;0.50;0.50;;;;;40.82;17.61;101293.13;4993195;28;45412;-47
2023/07/26 10:01:24;;;;;;;;;1.00;1.00;;;;;41.27;17.43;101296.47;5000240;28;45420;-47
2023/07/26 10:03:52;;;;;;;;;2.25;1.00;;;;;42.18;16.92;101299.00;4999953;28;68032;-47
2023/07/26 10:06:18;;;;;;;;;0.50;0.50;;;;;42.98;16.13;101294.78;5000950;28;45534;-45
2023/07/26 10:08:46;;;;;;;;;0.50;0.50;;;;;43.36;15.80;101289.63;5001227;28;45299;-50
2023/07/26 10:11:14;;;;;;;;;2.00;0.25;;;;;43.19;15.69;101297.56;5000853;28;45416;-46
2023/07/26 10:13:41;;;;;;;;;1.00;1.00;;;;;43.19;15.43;101298.38;5001032;28;46208;-48
2023/07/26 10:16:08;;;;;;;;;1.75;0.00;;;;;43.36;15.41;101295.22;5000928;28;45342;-50
2023/07/26 10:18:33;;;;;;;;;1.00;1.00;;;;;43.41;15.38;101294.38;5000583;28;45485;-47
2023/07/26 10:21:00;;;;;;;;;1.50;1.50;;;;;43.46;15.49;101291.56;4996204;28;45432;-48
2023/07/26 10:23:26;;;;;;;;;3.00;1.00;;;;;42.74;15.50;101288.97;4993714;28;46251;-49
2023/07/26 10:25:52;;;;;;;;;0.00;0.00;;;;;42.30;15.78;101288.41;5000516;28;45400;-50
2023/07/26 10:28:19;;;;;;;;;1.00;1.00;;;;;42.31;15.96;101281.72;5000332;28;49374;-48
2023/07/26 10:30:44;;;;;;;;;1.00;1.00;;;;;40.90;16.45;101296.50;5000628;28;45552;-47
2023/07/26 10:33:12;;;;;;;;;1.50;1.50;;;;;39.36;17.28;101293.84;4995723;28;46065;-47
2023/07/26 10:35:41;;;;;;;;;0.00;0.00;;;;;39.47;17.57;101297.63;5000622;28;45266;-46
2023/07/26 10:38:06;;;;;;;;;1.00;1.00;;;;;39.60;16.44;101283.31;5000592;28;45539;-47
2023/07/26 10:40:39;;;;;;;;;1.00;0.75;;;;;39.51;17.95;101280.13;4999499;28;45427;-45
2023/07/26 10:43:20;;;;;;;;;0.00;0.00;;;;;39.88;17.41;101275.00;5000657;28;45907;-47
2023/07/26 10:45:46;;;;;;;;;0.25;0.00;;;;;39.35;17.98;101276.34;5000553;28;45353;-47
2023/07/26 10:48:13;;;;;;;;;1.50;1.50;;;;;38.18;18.23;101285.31;5000432;28;45519;-47
2023/07/26 10:50:38;;;;;;;;;2.50;1.00;;;;;37.85;18.37;101275.03;5000294;28;45187;-47
2023/07/26 10:53:29;;;;;;;;;0.75;0.00;;;;;37.65;18.49;101270.69;4999416;28;67870;-46
2023/07/26 10:56:10;;;;;;;;;1.00;1.00;;;;;37.01;18.60;101270.72;5000338;28;45756;-47
2023/07/26 10:58:46;;;;;;;;;2.25;2.25;;;;;36.34;18.90;101288.44;5000464;28;45410;-47
2023/07/26 11:01:28;;;;;;;;;1.00;1.00;;;;;35.82;19.13;101284.28;5000168;28;45551;-47
2023/07/26 11:03:56;;;;;;;;;0.50;0.50;;;;;35.30;19.25;101287.44;4999712;28;47007;-45
2023/07/26 11:06:22;;;;;;;;;1.00;0.00;;;;;34.84;20.28;101278.59;4998932;28;45364;-47
2023/07/26 11:08:51;;;;;;;;;1.75;1.00;;;;;34.72;20.13;101274.84;5000312;28;45440;-48
2023/07/26 11:11:17;;;;;;;;;1.00;1.00;;;;;35.13;20.01;101283.63;5000064;28;45419;-47
2023/07/26 11:13:43;;;;;;;;;1.00;1.00;;;;;35.50;20.21;101287.25;4999867;28;47109;-47
2023/07/26 11:16:08;;;;;;;;;0.75;0.75;;;;;35.08;20.02;101276.00;4999916;28;45368;-45
2023/07/26 11:18:40;;;;;;;;;0.00;0.00;;;;;34.27;20.49;101282.16;4999123;28;69274;-45
2023/07/26 11:21:06;;;;;;;;;1.50;1.00;;;;;33.97;21.07;101277.28;4999836;28;45397;-46